Time;durP1;ratioP1;P1;durP2;ratioP2;P2;SDS_P1;SDS_P2;PMS_P1;PMS_P2;Temp;Humidity;BMP_temperature;BMP_pressure;BME280_temperature;BME280_humidity;BME280_pressure;Samples;Min_cycle;Max_cycle;Signal;HPM_P1;HPM_P2
2021/06/25 00:01:54;;;;;;;31.45;22.45;;;14.50;99.90;;;;;;4180597;28;20182;-84
2021/06/25 00:03:55;;;;;;;30.55;21.83;;;14.50;99.90;;;;;;4197245;28;20169;-83
2021/06/25 00:05:55;;;;;;;31.70;22.00;;;14.40;99.90;;;;;;4180562;28;20195;-83
2021/06/25 00:07:56;;;;;;;35.05;20.95;;;14.40;99.90;;;;;;4180714;28;20265;-83
2021/06/25 00:09:57;;;;;;;33.08;21.52;;;14.40;99.90;;;;;;4180450;28;20190;-83
2021/06/25 00:11:58;;;;;;;27.15;20.40;;;14.30;99.90;;;;;;4196682;28;20210;-83
2021/06/25 00:13:58;;;;;;;32.85;20.60;;;14.40;99.90;;;;;;4180391;28;20197;-83
2021/06/25 00:15:59;;;;;;;29.50;20.50;;;14.30;99.90;;;;;;4213949;28;20181;-83
2021/06/25 00:18:01;;;;;;;28.10;20.30;;;14.40;99.90;;;;;;4197025;28;20175;-83
2021/06/25 00:20:04;;;;;;;29.77;20.52;;;14.20;99.90;;;;;;4180119;28;20779;-83
2021/06/25 00:22:05;;;;;;;31.85;20.45;;;14.20;99.90;;;;;;4214119;28;20189;-83
2021/06/25 00:24:06;;;;;;;36.70;21.25;;;14.20;99.90;;;;;;4197364;28;20174;-83
2021/06/25 00:26:07;;;;;;;30.77;21.60;;;14.10;99.90;;;;;;4196899;28;20167;-84
2021/06/25 00:28:07;;;;;;;31.08;22.02;;;14.10;99.90;;;;;;4197010;28;20236;-83
2021/06/25 00:30:09;;;;;;;28.88;21.20;;;14.10;99.90;;;;;;4180311;28;20176;-83
2021/06/25 00:32:10;;;;;;;30.55;21.48;;;14.00;99.90;;;;;;4180099;28;20183;-84
2021/06/25 00:34:11;;;;;;;31.55;22.33;;;14.00;99.90;;;;;;4197068;28;20174;-83
2021/06/25 00:36:11;;;;;;;31.90;23.40;;;14.00;99.90;;;;;;4196592;28;20185;-83
2021/06/25 00:38:12;;;;;;;31.40;22.77;;;13.90;99.90;;;;;;4196986;28;20242;-83
2021/06/25 00:40:14;;;;;;;30.40;22.83;;;13.90;99.90;;;;;;4180238;28;20234;-83
2021/06/25 00:42:14;;;;;;;33.28;22.58;;;13.90;99.90;;;;;;4196657;28;20178;-83
2021/06/25 00:44:20;;;;;;;32.55;24.08;;;13.90;99.90;;;;;;4197027;28;20178;-83
2021/06/25 00:46:21;;;;;;;37.10;22.95;;;13.80;99.90;;;;;;4196851;28;20171;-83
2021/06/25 00:48:22;;;;;;;31.98;23.95;;;13.90;99.90;;;;;;4197038;28;20200;-83
2021/06/25 00:50:31;;;;;;;33.75;23.80;;;13.80;99.90;;;;;;4180154;28;20167;-83
2021/06/25 00:52:32;;;;;;;35.88;23.25;;;13.80;99.90;;;;;;4180159;28;20191;-83
2021/06/25 00:54:34;;;;;;;35.60;23.27;;;13.70;99.90;;;;;;4196880;28;20163;-83
2021/06/25 00:56:36;;;;;;;32.88;24.42;;;13.70;99.90;;;;;;4196617;28;20182;-83
2021/06/25 00:58:36;;;;;;;29.60;22.95;;;13.80;99.90;;;;;;4196725;28;20667;-83
2021/06/25 01:00:37;;;;;;;31.17;23.25;;;13.70;99.90;;;;;;4180819;28;20249;-84
2021/06/25 01:02:38;;;;;;;29.40;24.20;;;13.70;99.90;;;;;;4180014;28;20290;-83
2021/06/25 01:04:39;;;;;;;34.83;23.65;;;13.70;99.90;;;;;;4179897;28;20264;-84
2021/06/25 01:06:40;;;;;;;32.80;23.63;;;13.70;99.90;;;;;;4213201;28;20173;-83
2021/06/25 01:08:42;;;;;;;33.92;23.45;;;13.70;99.90;;;;;;4179857;28;20218;-83
2021/06/25 01:10:43;;;;;;;34.80;23.20;;;13.70;99.90;;;;;;4180033;28;20204;-83
2021/06/25 01:12:44;;;;;;;33.10;22.13;;;13.60;99.90;;;;;;4196574;28;20206;-84
2021/06/25 01:14:45;;;;;;;32.67;22.45;;;13.70;99.90;;;;;;4180177;28;20241;-83
2021/06/25 01:16:46;;;;;;;30.50;21.63;;;13.70;99.90;;;;;;4196576;28;20179;-84
2021/06/25 01:18:46;;;;;;;27.63;19.70;;;13.70;99.90;;;;;;4180161;28;20281;-84
2021/06/25 01:20:47;;;;;;;30.45;20.23;;;13.70;99.90;;;;;;4196326;28;20287;-83
2021/06/25 01:22:48;;;;;;;24.17;18.98;;;13.70;99.90;;;;;;4179879;28;20222;-83
2021/06/25 01:24:49;;;;;;;24.08;17.38;;;13.70;99.90;;;;;;4213274;28;20646;-83
2021/06/25 01:26:49;;;;;;;23.77;17.25;;;13.80;99.90;;;;;;4196747;28;20261;-84
2021/06/25 01:28:50;;;;;;;28.08;17.33;;;13.80;99.90;;;;;;4179779;28;20639;-83
2021/06/25 01:30:51;;;;;;;26.17;17.45;;;13.70;99.90;;;;;;4196261;28;20209;-83
2021/06/25 01:32:52;;;;;;;24.08;17.00;;;13.70;99.90;;;;;;4214772;28;20186;-83
2021/06/25 01:34:53;;;;;;;30.05;16.45;;;13.70;99.90;;;;;;4182666;28;20164;-83
2021/06/25 01:36:54;;;;;;;24.73;15.63;;;13.70;99.90;;;;;;4182904;28;20167;-84
2021/06/25 01:38:56;;;;;;;22.17;16.23;;;13.80;99.90;;;;;;4182771;28;20167;-83
2021/06/25 01:40:58;;;;;;;23.60;15.88;;;13.80;99.90;;;;;;4199459;28;20181;-83
2021/06/25 01:43:03;;;;;;;24.77;16.45;;;13.80;99.90;;;;;;4182716;28;20270;-83
2021/06/25 01:45:26;;;;;;;23.73;15.57;;;13.80;99.90;;;;;;4199427;28;20275;-83
2021/06/25 01:47:26;;;;;;;25.13;15.43;;;13.80;99.90;;;;;;4198696;28;20267;-84
2021/06/25 01:49:27;;;;;;;25.02;15.52;;;13.90;99.90;;;;;;4199388;28;20167;-83
2021/06/25 01:51:28;;;;;;;24.48;16.15;;;13.90;99.90;;;;;;4182392;28;20211;-83
2021/06/25 01:53:29;;;;;;;28.50;16.35;;;14.00;99.90;;;;;;4199210;28;20190;-84
2021/06/25 01:55:41;;;;;;;29.92;16.35;;;14.10;99.90;;;;;;4182522;28;20648;-83
2021/06/25 01:57:43;;;;;;;28.95;16.38;;;14.10;99.90;;;;;;4217143;28;20197;-84
2021/06/25 01:59:43;;;;;;;24.05;16.08;;;14.10;99.90;;;;;;4199074;28;20163;-83
2021/06/25 02:01:44;;;;;;;29.30;16.92;;;14.10;99.90;;;;;;4199383;28;20258;-83
2021/06/25 02:03:48;;;;;;;23.92;17.05;;;14.10;99.90;;;;;;4199019;28;20205;-83
2021/06/25 02:05:48;;;;;;;25.77;16.73;;;14.10;99.90;;;;;;4199056;28;20201;-83
2021/06/25 02:07:49;;;;;;;21.63;16.60;;;14.00;99.90;;;;;;4182471;28;20171;-84
2021/06/25 02:09:50;;;;;;;27.05;16.80;;;14.00;99.90;;;;;;4199014;28;20232;-83
2021/06/25 02:11:51;;;;;;;23.85;15.85;;;13.90;99.90;;;;;;4198646;28;20242;-83
2021/06/25 02:13:51;;;;;;;27.98;16.33;;;13.90;99.90;;;;;;4215476;28;20686;-83
2021/06/25 02:15:53;;;;;;;26.77;16.90;;;13.90;99.90;;;;;;4182533;28;20620;-83
2021/06/25 02:17:54;;;;;;;26.90;15.98;;;13.90;99.90;;;;;;4198751;28;20167;-83
2021/06/25 02:19:54;;;;;;;22.73;15.57;;;14.00;99.90;;;;;;4198814;28;20182;-83
2021/06/25 02:21:55;;;;;;;25.25;16.85;;;14.00;99.90;;;;;;4181916;28;20651;-83
2021/06/25 02:23:56;;;;;;;25.67;17.00;;;14.00;99.90;;;;;;4198648;28;20159;-83
2021/06/25 02:25:57;;;;;;;27.50;16.63;;;13.90;99.90;;;;;;4198688;28;20273;-83
2021/06/25 02:27:58;;;;;;;24.50;16.33;;;13.80;99.90;;;;;;4198732;28;20570;-84
2021/06/25 02:29:58;;;;;;;24.77;15.95;;;13.90;99.90;;;;;;4182164;28;20175;-83
2021/06/25 02:31:59;;;;;;;29.83;16.73;;;13.80;99.90;;;;;;4215200;28;20207;-84
2021/06/25 02:34:00;;;;;;;23.65;16.42;;;13.70;99.90;;;;;;4182196;28;20290;-83
2021/06/25 02:36:01;;;;;;;31.25;16.80;;;13.70;99.90;;;;;;4198623;28;20205;-94
2021/06/25 02:38:02;;;;;;;23.77;16.33;;;13.60;99.90;;;;;;4181911;28;20171;-83
2021/06/25 02:40:03;;;;;;;25.48;16.48;;;13.60;99.90;;;;;;4182097;28;20527;-84
2021/06/25 02:42:05;;;;;;;29.15;17.15;;;13.60;99.90;;;;;;4181776;28;20175;-83
2021/06/25 02:44:06;;;;;;;24.58;17.38;;;13.60;99.90;;;;;;4180948;28;20199;-83
2021/06/25 02:46:07;;;;;;;22.42;16.65;;;13.60;99.90;;;;;;4198330;28;20531;-83
2021/06/25 02:48:08;;;;;;;22.50;16.08;;;13.60;99.90;;;;;;4215167;28;20162;-83
2021/06/25 02:50:10;;;;;;;30.83;17.40;;;13.60;99.90;;;;;;4198541;28;20268;-84
2021/06/25 02:52:10;;;;;;;29.08;17.17;;;13.60;99.90;;;;;;4198092;28;20183;-84
2021/06/25 02:54:11;;;;;;;29.27;17.38;;;13.50;99.90;;;;;;4181985;28;20198;-84
2021/06/25 02:56:12;;;;;;;27.27;17.02;;;13.40;99.90;;;;;;4215124;28;20538;-83
2021/06/25 02:58:13;;;;;;;24.00;15.68;;;13.40;99.90;;;;;;4198033;28;20182;-83
2021/06/25 03:00:16;;;;;;;25.52;15.52;;;13.50;99.90;;;;;;4198302;28;20173;-84
2021/06/25 03:02:17;;;;;;;26.45;17.70;;;13.50;99.90;;;;;;4181593;28;20269;-84
2021/06/25 03:04:18;;;;;;;26.63;17.00;;;13.40;99.90;;;;;;4198074;28;20163;-83
2021/06/25 03:06:18;;;;;;;27.88;17.65;;;13.40;99.90;;;;;;4181321;28;20247;-83
2021/06/25 03:08:19;;;;;;;28.33;17.30;;;13.30;99.90;;;;;;4197784;28;20217;-83
2021/06/25 03:10:20;;;;;;;27.00;17.20;;;13.40;99.90;;;;;;4181202;28;20262;-83
2021/06/25 03:12:21;;;;;;;29.85;16.52;;;13.40;99.90;;;;;;4214561;28;20709;-84
2021/06/25 03:14:22;;;;;;;29.60;17.90;;;13.40;99.90;;;;;;4181374;28;20267;-83
2021/06/25 03:16:23;;;;;;;29.88;17.60;;;13.50;99.90;;;;;;4197801;28;20204;-84
2021/06/25 03:18:23;;;;;;;26.40;17.40;;;13.40;99.90;;;;;;4198236;28;20171;-84
2021/06/25 03:20:24;;;;;;;25.75;17.30;;;13.50;99.90;;;;;;4181457;28;20167;-83
2021/06/25 03:22:25;;;;;;;26.17;16.35;;;13.40;99.90;;;;;;4197923;28;20739;-84
2021/06/25 03:24:26;;;;;;;24.50;17.00;;;13.40;99.90;;;;;;4181343;28;20202;-84
2021/06/25 03:26:27;;;;;;;29.65;17.67;;;13.40;99.90;;;;;;4197715;28;20182;-84
2021/06/25 03:28:27;;;;;;;24.75;16.60;;;13.50;99.90;;;;;;4197677;28;20163;-83
2021/06/25 03:30:29;;;;;;;28.05;16.92;;;13.50;99.90;;;;;;4214429;28;20174;-83
2021/06/25 03:32:29;;;;;;;30.08;17.77;;;13.50;99.90;;;;;;4197690;28;20195;-83
2021/06/25 03:34:30;;;;;;;31.48;18.35;;;13.50;99.90;;;;;;4181429;28;20198;-83
2021/06/25 03:36:31;;;;;;;26.27;16.30;;;13.50;99.90;;;;;;4197480;28;20171;-83
2021/06/25 03:38:32;;;;;;;28.45;18.27;;;13.60;99.90;;;;;;4180966;28;20624;-83
2021/06/25 03:40:35;;;;;;;32.92;18.13;;;13.60;99.90;;;;;;4180954;28;20698;-83
2021/06/25 03:42:37;;;;;;;29.38;18.02;;;13.60;99.90;;;;;;4197293;28;20195;-83
2021/06/25 03:44:37;;;;;;;29.70;18.10;;;13.60;99.90;;;;;;4197507;28;20262;-83
2021/06/25 03:46:38;;;;;;;27.13;16.95;;;13.60;99.90;;;;;;4180692;28;20172;-83
2021/06/25 03:48:39;;;;;;;22.48;16.40;;;13.70;99.90;;;;;;4180845;28;20199;-83
2021/06/25 03:50:40;;;;;;;29.05;17.60;;;13.70;99.90;;;;;;4180921;28;20233;-84
2021/06/25 03:52:40;;;;;;;25.85;18.38;;;13.70;99.90;;;;;;4180850;28;20249;-84
2021/06/25 03:54:43;;;;;;;25.92;17.52;;;13.70;99.90;;;;;;4197083;28;20281;-83
2021/06/25 03:56:44;;;;;;;28.58;16.83;;;13.80;99.90;;;;;;4197325;28;20208;-84
2021/06/25 03:58:47;;;;;;;24.80;17.17;;;13.70;99.90;;;;;;4180570;28;20591;-83
2021/06/25 04:00:48;;;;;;;29.73;17.98;;;13.80;99.90;;;;;;4197154;28;20171;-84
2021/06/25 04:02:49;;;;;;;28.10;17.42;;;13.80;99.90;;;;;;4196942;28;20187;-83
2021/06/25 04:04:49;;;;;;;32.00;16.73;;;13.80;99.90;;;;;;4180812;28;20175;-84
2021/06/25 04:06:50;;;;;;;27.83;16.63;;;13.70;99.90;;;;;;4196989;28;20650;-84
2021/06/25 04:08:51;;;;;;;25.33;16.63;;;13.70;99.90;;;;;;4197212;28;20181;-83
2021/06/25 04:10:52;;;;;;;28.70;17.73;;;13.80;99.90;;;;;;4196957;28;20210;-84
2021/06/25 04:12:52;;;;;;;27.65;18.10;;;13.70;99.90;;;;;;4180433;28;20184;-84
2021/06/25 04:14:53;;;;;;;24.98;17.30;;;13.80;99.90;;;;;;4197370;28;20175;-83
2021/06/25 04:16:54;;;;;;;28.70;17.27;;;13.80;99.90;;;;;;4197147;28;20545;-83
2021/06/25 04:18:55;;;;;;;28.40;17.15;;;13.90;99.90;;;;;;4213961;28;20179;-84
2021/06/25 04:20:56;;;;;;;29.85;17.60;;;13.90;99.90;;;;;;4197034;28;20210;-84
2021/06/25 04:22:57;;;;;;;27.05;17.38;;;14.00;99.90;;;;;;4197104;28;20207;-84
2021/06/25 04:24:58;;;;;;;24.55;16.83;;;14.00;99.90;;;;;;4181185;28;20667;-83
2021/06/25 04:26:59;;;;;;;27.77;17.63;;;14.00;99.90;;;;;;4197063;28;20167;-84
2021/06/25 04:29:02;;;;;;;27.83;18.40;;;14.20;99.90;;;;;;4180174;28;20199;-84
2021/06/25 04:31:03;;;;;;;33.10;17.48;;;14.40;99.90;;;;;;4180435;28;20711;-83
2021/06/25 04:33:04;;;;;;;24.77;17.42;;;14.40;99.90;;;;;;4197126;28;20194;-83
2021/06/25 04:35:06;;;;;;;31.35;17.48;;;14.50;99.90;;;;;;4196910;28;20178;-84
2021/06/25 04:37:06;;;;;;;23.58;15.75;;;14.40;99.90;;;;;;4213691;28;20640;-84
2021/06/25 04:39:07;;;;;;;27.88;16.63;;;14.40;99.90;;;;;;4196874;28;20175;-84
2021/06/25 04:41:08;;;;;;;24.70;16.20;;;14.50;99.90;;;;;;4196781;28;20195;-83
2021/06/25 04:43:11;;;;;;;23.30;15.70;;;14.30;99.90;;;;;;4196888;28;20251;-84
2021/06/25 04:45:13;;;;;;;22.15;16.02;;;14.30;99.90;;;;;;4197078;28;20159;-83
2021/06/25 04:47:13;;;;;;;22.90;15.85;;;14.20;99.90;;;;;;4196876;28;20260;-84
2021/06/25 04:49:14;;;;;;;24.83;16.30;;;14.40;99.90;;;;;;4180419;28;20643;-84
2021/06/25 04:51:15;;;;;;;24.27;15.18;;;14.30;99.90;;;;;;4180373;28;20226;-83
2021/06/25 04:53:16;;;;;;;27.80;16.48;;;14.40;99.90;;;;;;4197340;28;20653;-84
2021/06/25 04:55:16;;;;;;;31.95;16.17;;;14.30;99.90;;;;;;4196869;28;20179;-83
2021/06/25 04:57:17;;;;;;;23.42;15.27;;;14.40;99.90;;;;;;4180112;28;20176;-84
2021/06/25 04:59:18;;;;;;;30.20;16.60;;;14.30;99.90;;;;;;4179959;28;20179;-83
2021/06/25 05:01:18;;;;;;;26.13;16.42;;;14.30;99.90;;;;;;4180323;28;20212;-84
2021/06/25 05:03:20;;;;;;;23.25;15.52;;;14.30;99.90;;;;;;4180400;28;20195;-83
2021/06/25 05:05:21;;;;;;;28.92;16.48;;;14.30;99.90;;;;;;4196660;28;20163;-84
2021/06/25 05:07:21;;;;;;;24.08;16.95;;;14.40;99.90;;;;;;4197468;28;20258;-84
2021/06/25 05:09:22;;;;;;;28.10;16.23;;;14.50;99.90;;;;;;4199703;28;20203;-83
2021/06/25 05:11:23;;;;;;;28.13;15.73;;;14.50;99.90;;;;;;4199974;28;20222;-84
2021/06/25 05:13:25;;;;;;;28.35;15.88;;;14.50;99.90;;;;;;4183068;28;20281;-84
2021/06/25 05:15:26;;;;;;;28.70;16.17;;;14.50;99.90;;;;;;4199853;28;20175;-84
2021/06/25 05:17:29;;;;;;;26.35;15.60;;;14.60;99.90;;;;;;4217515;28;20594;-84
2021/06/25 05:19:30;;;;;;;27.92;15.32;;;14.70;99.90;;;;;;4200890;28;20220;-84
2021/06/25 05:21:31;;;;;;;24.90;15.02;;;14.70;99.90;;;;;;4216715;28;20217;-95
2021/06/25 05:23:32;;;;;;;31.83;15.63;;;14.60;99.90;;;;;;4199458;28;20321;-84
2021/06/25 05:25:32;;;;;;;25.17;15.38;;;14.60;99.90;;;;;;4199800;28;20220;-84
2021/06/25 05:27:33;;;;;;;21.00;14.27;;;14.40;99.90;;;;;;4199763;28;20178;-84
2021/06/25 05:29:34;;;;;;;27.40;14.23;;;14.40;99.90;;;;;;4217647;28;20158;-85
2021/06/25 05:31:35;;;;;;;25.17;14.43;;;14.30;99.90;;;;;;4199598;28;20343;-84
2021/06/25 05:33:35;;;;;;;25.73;13.75;;;14.30;99.90;;;;;;4183089;28;20294;-84
2021/06/25 05:35:37;;;;;;;22.65;13.48;;;14.30;99.90;;;;;;4199753;28;20167;-84
2021/06/25 05:37:38;;;;;;;18.65;13.73;;;14.30;99.90;;;;;;4183094;28;20191;-84
2021/06/25 05:39:40;;;;;;;18.33;12.93;;;14.40;99.90;;;;;;4199705;28;20186;-84
2021/06/25 05:41:40;;;;;;;20.65;13.98;;;14.50;99.90;;;;;;4199410;28;20254;-84
2021/06/25 05:43:42;;;;;;;26.95;14.45;;;14.60;99.90;;;;;;4199978;28;20190;-84
2021/06/25 05:45:43;;;;;;;22.55;12.77;;;14.70;99.90;;;;;;4183046;28;20164;-85
2021/06/25 05:47:43;;;;;;;21.30;13.75;;;14.60;99.90;;;;;;4182901;28;20221;-85
2021/06/25 05:49:44;;;;;;;20.48;12.88;;;14.70;99.90;;;;;;4183044;28;20635;-84
2021/06/25 05:51:45;;;;;;;21.92;13.00;;;14.70;99.90;;;;;;4216270;28;20766;-84
2021/06/25 05:53:46;;;;;;;19.90;11.75;;;14.80;99.90;;;;;;4199821;28;20305;-85
2021/06/25 05:55:46;;;;;;;18.60;12.48;;;14.80;99.90;;;;;;4216373;28;20182;-84
2021/06/25 05:57:48;;;;;;;24.65;12.82;;;14.90;99.90;;;;;;4199325;28;20231;-84
2021/06/25 05:59:48;;;;;;;24.02;12.77;;;15.00;99.90;;;;;;4199280;28;20174;-84
2021/06/25 06:01:49;;;;;;;22.33;12.15;;;15.10;99.90;;;;;;4199235;28;20175;-84
2021/06/25 06:03:50;;;;;;;25.67;11.95;;;15.10;99.90;;;;;;4199246;28;20187;-90
2021/06/25 06:05:51;;;;;;;20.02;11.50;;;15.20;99.90;;;;;;4182937;28;20262;-85
2021/06/25 06:07:51;;;;;;;20.20;12.68;;;15.20;99.90;;;;;;4199203;28;20171;-85
2021/06/25 06:09:53;;;;;;;18.30;11.88;;;15.20;99.90;;;;;;4199463;28;20690;-84
2021/06/25 06:11:53;;;;;;;16.83;11.55;;;15.10;99.90;;;;;;4215586;28;20657;-84
2021/06/25 06:13:54;;;;;;;22.48;11.88;;;15.30;99.90;;;;;;4199199;28;20167;-85
2021/06/25 06:15:57;;;;;;;20.83;11.77;;;15.30;99.90;;;;;;4199312;28;20185;-84
2021/06/25 06:18:00;;;;;;;19.00;11.18;;;15.40;99.90;;;;;;4182598;28;20258;-88
2021/06/25 06:20:00;;;;;;;18.50;11.05;;;15.60;99.90;;;;;;4182934;28;20191;-85
2021/06/25 06:31:21;;;;;;;16.98;10.82;;;16.40;99.90;;;;;;4201363;28;20741;-85
2021/06/25 06:33:29;;;;;;;17.67;10.77;;;16.60;99.90;;;;;;4199430;28;20545;-85
2021/06/25 06:35:30;;;;;;;14.07;9.90;;;16.50;99.90;;;;;;4198875;28;20421;-84
2021/06/25 06:37:31;;;;;;;17.10;10.60;;;16.50;99.90;;;;;;4181840;28;20592;-84
2021/06/25 06:39:32;;;;;;;15.07;10.32;;;16.50;99.90;;;;;;4216450;28;20170;-84
2021/06/25 06:41:34;;;;;;;19.65;9.15;;;16.70;99.90;;;;;;4217898;28;20649;-84
2021/06/25 06:43:39;;;;;;;14.35;8.73;;;17.00;99.90;;;;;;4198634;28;20618;-85
2021/06/25 06:45:39;;;;;;;14.98;9.35;;;17.10;99.90;;;;;;4182469;28;20254;-84
2021/06/25 06:47:40;;;;;;;14.55;8.77;;;17.20;99.90;;;;;;4184243;28;20272;-91
2021/06/25 06:49:41;;;;;;;16.58;9.35;;;17.30;99.90;;;;;;4216354;28;20523;-86
2021/06/25 06:51:41;;;;;;;13.65;9.30;;;17.40;99.90;;;;;;4183637;28;20211;-94
2021/06/25 06:53:43;;;;;;;13.70;9.48;;;17.30;99.90;;;;;;4218773;28;20222;-94
2021/06/25 06:55:44;;;;;;;16.85;8.85;;;17.60;99.90;;;;;;4183082;28;20171;-84
2021/06/25 06:57:46;;;;;;;16.35;8.27;;;17.90;99.90;;;;;;4198453;28;20258;-84
2021/06/25 06:59:46;;;;;;;20.73;8.35;;;18.40;99.90;;;;;;4198484;28;20225;-85
2021/06/25 07:01:47;;;;;;;12.85;8.50;;;19.00;99.90;;;;;;4215964;28;20225;-84
2021/06/25 07:03:48;;;;;;;18.48;8.30;;;19.10;99.90;;;;;;4198757;28;20225;-84
2021/06/25 07:05:48;;;;;;;16.23;8.55;;;19.30;99.90;;;;;;4198518;28;20182;-85
2021/06/25 07:07:49;;;;;;;12.27;8.70;;;19.20;99.90;;;;;;4198501;28;20174;-85
2021/06/25 07:09:50;;;;;;;11.48;7.60;;;19.00;99.90;;;;;;4198139;28;20680;-84
2021/06/25 07:11:50;;;;;;;9.73;7.95;;;19.00;99.90;;;;;;4215479;28;20202;-85
2021/06/25 07:13:52;;;;;;;16.42;8.48;;;19.00;99.90;;;;;;4181484;28;20258;-85
2021/06/25 07:15:54;;;;;;;10.93;8.40;;;19.30;99.90;;;;;;4198563;28;20190;-84
2021/06/25 07:17:55;;;;;;;13.48;7.60;;;19.50;99.90;;;;;;4198125;28;20232;-84
2021/06/25 07:19:56;;;;;;;12.50;7.65;;;19.70;99.90;;;;;;4197958;28;20241;-85
2021/06/25 07:21:57;;;;;;;12.52;7.20;;;19.60;99.90;;;;;;4197803;28;20183;-85
2021/06/25 07:23:59;;;;;;;10.95;7.85;;;19.40;99.90;;;;;;4198029;28;20658;-84
2021/06/25 07:26:00;;;;;;;13.82;7.65;;;19.40;99.90;;;;;;4215278;28;20177;-84
2021/06/25 07:28:01;;;;;;;13.27;7.90;;;19.10;99.90;;;;;;4197416;28;20170;-85
2021/06/25 07:30:03;;;;;;;12.48;8.20;;;18.70;99.90;;;;;;4214218;28;20197;-84
2021/06/25 07:32:05;;;;;;;19.95;8.38;;;19.00;99.90;;;;;;4197419;28;20214;-85
2021/06/25 07:34:05;;;;;;;12.55;7.95;;;18.90;99.90;;;;;;4215639;28;20264;-84
2021/06/25 07:36:06;;;;;;;10.98;8.07;;;18.80;99.90;;;;;;4197205;28;20182;-84
2021/06/25 07:38:07;;;;;;;13.70;7.75;;;18.80;99.90;;;;;;4197226;28;20194;-85
2021/06/25 07:40:12;;;;;;;15.75;8.32;;;18.80;99.90;;;;;;4197651;28;20638;-84
2021/06/25 07:42:13;;;;;;;14.82;8.02;;;18.90;99.90;;;;;;4215761;28;20190;-85
2021/06/25 07:44:13;;;;;;;11.23;7.90;;;18.80;99.90;;;;;;4215622;28;20630;-84
2021/06/25 07:46:14;;;;;;;16.27;8.93;;;18.70;99.90;;;;;;4181637;28;20180;-85
2021/06/25 07:48:15;;;;;;;13.57;8.32;;;18.60;99.90;;;;;;4198116;28;20590;-85
2021/06/25 07:50:18;;;;;;;17.33;8.20;;;18.60;99.90;;;;;;4198353;28;20178;-84
2021/06/25 07:52:19;;;;;;;13.50;7.70;;;18.30;99.90;;;;;;4180542;28;20211;-84
2021/06/25 07:54:20;;;;;;;16.98;8.68;;;18.30;99.90;;;;;;4215143;28;20166;-84
2021/06/25 07:56:21;;;;;;;13.45;8.10;;;18.30;99.90;;;;;;4181003;28;20662;-85
2021/06/25 07:58:22;;;;;;;16.73;8.65;;;18.20;99.90;;;;;;4180635;28;20171;-85
2021/06/25 08:00:22;;;;;;;15.52;8.18;;;18.20;99.90;;;;;;4180744;28;20182;-84
2021/06/25 08:02:23;;;;;;;13.25;7.82;;;18.10;99.90;;;;;;4198032;28;20674;-84
2021/06/25 08:04:26;;;;;;;16.20;7.95;;;18.10;99.90;;;;;;4214139;28;20223;-84
2021/06/25 08:06:28;;;;;;;14.00;8.13;;;18.10;99.90;;;;;;4181104;28;20586;-86
2021/06/25 08:08:28;;;;;;;13.55;8.25;;;18.00;99.90;;;;;;4197251;28;20285;-85
2021/06/25 08:10:29;;;;;;;11.18;7.88;;;18.00;99.90;;;;;;4197283;28;20175;-84
2021/06/25 08:12:30;;;;;;;12.25;8.30;;;17.90;99.90;;;;;;4197265;28;20624;-84
2021/06/25 08:14:31;;;;;;;15.75;7.85;;;17.80;99.90;;;;;;4197291;28;20170;-94
2021/06/25 08:16:31;;;;;;;14.27;8.23;;;17.90;99.90;;;;;;4197100;28;20631;-84
2021/06/25 08:18:32;;;;;;;10.20;7.70;;;17.80;99.90;;;;;;4180674;28;20214;-85
2021/06/25 08:20:33;;;;;;;15.07;8.13;;;18.10;99.90;;;;;;4197298;28;20171;-84
2021/06/25 08:22:34;;;;;;;11.15;7.80;;;18.20;99.90;;;;;;4180517;28;20187;-85
2021/06/25 08:24:35;;;;;;;13.30;8.05;;;18.40;99.90;;;;;;4180821;28;20643;-85
2021/06/25 08:26:35;;;;;;;13.32;8.00;;;18.80;99.90;;;;;;4181647;28;20171;-85
2021/06/25 08:28:36;;;;;;;15.38;8.25;;;19.10;99.90;;;;;;4181178;28;20179;-84
2021/06/25 08:30:37;;;;;;;13.27;7.63;;;19.50;99.90;;;;;;4213769;28;20641;-84
2021/06/25 08:32:38;;;;;;;15.43;7.80;;;19.70;99.90;;;;;;4196896;28;20201;-84
2021/06/25 08:34:38;;;;;;;10.63;7.00;;;19.50;99.90;;;;;;4181017;28;20171;-84
2021/06/25 08:36:39;;;;;;;11.82;7.50;;;19.60;99.90;;;;;;4197023;28;20261;-85
2021/06/25 08:38:40;;;;;;;12.32;7.10;;;20.10;99.90;;;;;;4213699;28;20166;-85
2021/06/25 08:40:41;;;;;;;12.60;7.70;;;20.30;99.90;;;;;;4180442;28;20195;-84
2021/06/25 08:42:42;;;;;;;19.95;7.72;;;20.50;99.90;;;;;;4216163;28;20196;-85
2021/06/25 08:44:43;;;;;;;9.73;7.50;;;20.70;99.90;;;;;;4200329;28;20642;-84
2021/06/25 08:46:47;;;;;;;10.55;8.05;;;20.60;99.90;;;;;;4200440;28;20223;-85
2021/06/25 08:48:48;;;;;;;11.00;7.65;;;20.70;99.90;;;;;;4184397;28;20663;-85
2021/06/25 08:50:53;;;;;;;14.05;8.00;;;20.90;99.90;;;;;;4183493;28;20286;-85
2021/06/25 08:52:54;;;;;;;13.02;7.85;;;21.30;99.90;;;;;;4218320;28;20204;-84
2021/06/25 08:54:55;;;;;;;10.02;7.65;;;21.90;99.90;;;;;;4200557;28;20173;-84
2021/06/25 08:56:57;;;;;;;11.48;7.63;;;21.70;99.90;;;;;;4200130;28;20163;-85
2021/06/25 08:59:00;;;;;;;10.63;7.95;;;21.50;99.90;;;;;;4200310;28;20178;-84
2021/06/25 09:01:02;;;;;;;12.00;8.05;;;21.20;99.90;;;;;;4200129;28;20163;-84
2021/06/25 09:03:03;;;;;;;13.27;7.90;;;21.20;99.90;;;;;;4183443;28;20260;-84
2021/06/25 09:05:06;;;;;;;13.60;7.80;;;21.30;99.90;;;;;;4201020;28;20690;-85
2021/06/25 09:07:07;;;;;;;15.65;7.70;;;20.80;99.90;;;;;;4218509;28;20166;-84
2021/06/25 09:09:14;;;;;;;10.05;7.60;;;21.00;99.90;;;;;;4201216;28;20167;-84
2021/06/25 09:11:19;;;;;;;10.27;7.72;;;21.40;99.90;;;;;;4200660;28;20313;-84
2021/06/25 09:13:36;;;;;;;12.00;7.70;;;21.60;99.90;;;;;;4184417;28;20683;-84
2021/06/25 09:15:41;;;;;;;10.77;7.18;;;21.70;99.90;;;;;;4200012;28;20185;-85
2021/06/25 09:17:56;;;;;;;19.23;8.38;;;21.60;99.90;;;;;;4199736;28;20167;-86
2021/06/25 09:19:57;;;;;;;11.90;7.60;;;21.60;99.90;;;;;;4200142;28;20179;-85
2021/06/25 09:22:03;;;;;;;10.45;7.18;;;21.50;99.90;;;;;;4200283;28;20674;-84
2021/06/25 09:24:24;;;;;;;13.52;7.47;;;21.20;99.90;;;;;;4199632;28;20232;-85
2021/06/25 09:26:30;;;;;;;12.55;7.68;;;21.00;99.90;;;;;;4218095;28;20174;-84
2021/06/25 09:28:37;;;;;;;13.32;8.55;;;21.00;99.90;;;;;;4200569;28;20186;-84
2021/06/25 09:30:43;;;;;;;14.70;8.13;;;21.00;99.90;;;;;;4199711;28;20619;-89
2021/06/25 09:32:44;;;;;;;15.43;8.68;;;21.40;99.90;;;;;;4199829;28;20199;-84
2021/06/25 09:34:51;;;;;;;13.20;7.95;;;21.00;99.90;;;;;;4200087;28;20159;-85
2021/06/25 09:37:00;;;;;;;16.58;8.55;;;21.40;99.90;;;;;;4183925;28;20175;-86
2021/06/25 09:39:13;;;;;;;17.17;7.78;;;21.60;99.90;;;;;;4200935;28;20639;-85
2021/06/25 09:41:19;;;;;;;14.25;8.45;;;21.50;99.90;;;;;;4199615;28;20178;-84
2021/06/25 09:43:20;;;;;;;12.57;7.75;;;21.60;99.90;;;;;;4182811;28;20191;-85
2021/06/25 09:45:24;;;;;;;10.63;7.40;;;21.90;99.90;;;;;;4199294;28;20261;-84
2021/06/25 09:47:30;;;;;;;9.30;7.72;;;21.80;99.90;;;;;;4199350;28;20179;-85
2021/06/25 09:49:31;;;;;;;11.18;7.40;;;21.50;99.90;;;;;;4199513;28;20643;-85
2021/06/25 09:51:33;;;;;;;12.60;8.02;;;21.50;99.90;;;;;;4216225;28;20206;-94
2021/06/25 09:53:34;;;;;;;12.55;8.00;;;21.10;99.90;;;;;;4182279;28;20191;-85
2021/06/25 09:55:56;;;;;;;14.23;8.00;;;20.70;99.90;;;;;;4183058;28;20650;-85
2021/06/25 10:03:13;;;;;;;12.68;7.82;;;21.00;99.90;;;;;;4199210;28;20206;-84
2021/06/25 10:05:15;;;;;;;11.43;7.40;;;21.10;99.90;;;;;;4217475;28;20180;-84
2021/06/25 10:07:25;;;;;;;12.50;7.38;;;21.10;99.90;;;;;;4199597;28;20179;-85
2021/06/25 10:09:25;;;;;;;12.55;7.47;;;21.00;99.90;;;;;;4200490;28;20260;-84
2021/06/25 10:11:31;;;;;;;8.55;7.25;;;20.90;99.90;;;;;;4198765;28;20665;-85
2021/06/25 10:13:34;;;;;;;10.48;7.18;;;20.80;99.90;;;;;;4182109;28;20719;-85
2021/06/25 10:15:36;;;;;;;14.20;7.25;;;20.70;99.90;;;;;;4215769;28;20681;-84
2021/06/25 10:17:38;;;;;;;10.35;7.10;;;20.50;99.90;;;;;;4198829;28;20175;-84
2021/06/25 10:19:42;;;;;;;13.30;7.43;;;20.10;99.90;;;;;;4200890;28;20181;-84
2021/06/25 10:21:43;;;;;;;11.23;7.40;;;20.30;99.90;;;;;;4217109;28;20178;-85
2021/06/25 10:23:49;;;;;;;10.00;7.15;;;20.20;99.90;;;;;;4182178;28;20601;-84
2021/06/25 10:25:50;;;;;;;8.85;7.15;;;20.30;99.90;;;;;;4199586;28;20266;-85
2021/06/25 10:27:52;;;;;;;13.48;7.70;;;20.40;99.90;;;;;;4198891;28;20167;-85
2021/06/25 10:29:56;;;;;;;12.07;8.30;;;20.90;99.90;;;;;;4198759;28;20320;-84
2021/06/25 10:31:57;;;;;;;15.88;7.50;;;21.10;99.90;;;;;;4218598;28;20197;-85
2021/06/25 10:33:58;;;;;;;12.27;7.50;;;21.50;99.90;;;;;;4199280;28;20167;-85
2021/06/25 10:36:02;;;;;;;12.18;7.93;;;21.30;99.90;;;;;;4199485;28;20205;-84